AAR224 RKSI-KJFK
Flight info
| Callsign | AAR224 |
|---|---|
| Flight time | N/A |
| Altitude | 19000 |
| Route | EGOBA2Y EGOBA Y697 LANAT Y51 SAMON Y142 GTC Y512 ELDAK/N0493F350 Y512 OATIS R580 OPAKE 56N180E/N0495F370 59N170W 60N160W 61N150W JAGIT 60N130W 57N120W/N0482F390 53N108W 50N100W 46N090W TWIGS JHW Q476 WLKES PUCKY1 |
| Aircraft | A388/J-V/A |
Departure
| Time | N/A |
|---|---|
| Airport | Incheon International Airport (RKSI) |
Arrival
| Time | 2026-05-09 01:19 |
|---|---|
| Airport | John F. Kennedy International Airport (KJFK) |
| Time | Latitude | Longitude | Altitude | Speed | Heading |
|---|---|---|---|---|---|
| 2026-05-09 00:56 | 40.98241 | -74.75278 | 21355 ft | 424 kts | 97° |
| 2026-05-09 00:57 | 40.97793 | -74.71458 | 21104 ft | 416 kts | 97° |
| 2026-05-09 00:57 | 40.97349 | -74.67690 | 20726 ft | 412 kts | 97° |
| 2026-05-09 00:57 | 40.96912 | -74.63979 | 20422 ft | 406 kts | 97° |
| 2026-05-09 00:57 | 40.96478 | -74.60310 | 20201 ft | 399 kts | 97° |
| 2026-05-09 00:58 | 40.96057 | -74.56752 | 19879 ft | 395 kts | 98° |
| 2026-05-09 00:58 | 40.95636 | -74.53208 | 19539 ft | 392 kts | 98° |
| 2026-05-09 00:58 | 40.95214 | -74.49664 | 19215 ft | 388 kts | 98° |
| 2026-05-09 00:58 | 40.94790 | -74.46114 | 19014 ft | 384 kts | 98° |
| 2026-05-09 00:59 | 40.94380 | -74.42686 | 18970 ft | 385 kts | 98° |
| 2026-05-09 00:59 | 40.93958 | -74.39165 | 18964 ft | 386 kts | 98° |
| 2026-05-09 00:59 | 40.93543 | -74.35706 | 18962 ft | 386 kts | 98° |
| 2026-05-09 00:59 | 40.93115 | -74.32158 | 18964 ft | 385 kts | 98° |
| 2026-05-09 01:00 | 40.92695 | -74.28692 | 18959 ft | 385 kts | 98° |
| 2026-05-09 01:00 | 40.92266 | -74.25148 | 18963 ft | 385 kts | 98° |
| 2026-05-09 01:00 | 40.91845 | -74.21673 | 18964 ft | 384 kts | 98° |
| 2026-05-09 01:00 | 40.91417 | -74.18163 | 18959 ft | 384 kts | 98° |
| 2026-05-09 01:01 | 40.90981 | -74.14679 | 18960 ft | 385 kts | 101° |
| 2026-05-09 01:01 | 40.90219 | -74.11447 | 18965 ft | 385 kts | 115° |
| 2026-05-09 01:01 | 40.88894 | -74.08382 | 18962 ft | 382 kts | 130° |
| 2026-05-09 01:01 | 40.87051 | -74.05961 | 18953 ft | 373 kts | 147° |
| 2026-05-09 01:02 | 40.84993 | -74.03858 | 18752 ft | 371 kts | 147° |
| 2026-05-09 01:02 | 40.83048 | -74.01868 | 18457 ft | 369 kts | 147° |
| 2026-05-09 01:02 | 40.81213 | -73.99999 | 18128 ft | 367 kts | 147° |
| 2026-05-09 01:02 | 40.79185 | -73.97993 | 17728 ft | 360 kts | 154° |
| 2026-05-09 01:03 | 40.77049 | -73.96787 | 17329 ft | 344 kts | 175° |
| 2026-05-09 01:03 | 40.74770 | -73.96536 | 16934 ft | 331 kts | 187° |
| 2026-05-09 01:03 | 40.72473 | -73.96485 | 16565 ft | 328 kts | 187° |
| 2026-05-09 01:03 | 40.70311 | -73.96431 | 16211 ft | 326 kts | 187° |
| 2026-05-09 01:04 | 40.68261 | -73.96379 | 16048 ft | 324 kts | 187° |
| 2026-05-09 01:04 | 40.66492 | -73.96334 | 16011 ft | 324 kts | 187° |
| 2026-05-09 01:04 | 40.64511 | -73.96282 | 16007 ft | 324 kts | 187° |
| 2026-05-09 01:04 | 40.62252 | -73.96224 | 15979 ft | 324 kts | 187° |
| 2026-05-09 01:05 | 40.60007 | -73.96163 | 15718 ft | 323 kts | 187° |
| 2026-05-09 01:05 | 40.57764 | -73.96101 | 15366 ft | 320 kts | 187° |
| 2026-05-09 01:05 | 40.53336 | -73.95982 | 14615 ft | 317 kts | 187° |
| 2026-05-09 01:06 | 40.51130 | -73.95926 | 14253 ft | 315 kts | 187° |
| 2026-05-09 01:06 | 40.48951 | -73.95873 | 13879 ft | 313 kts | 187° |
| 2026-05-09 01:06 | 40.46769 | -73.95820 | 13492 ft | 311 kts | 186° |
| 2026-05-09 01:06 | 40.44622 | -73.95236 | 13106 ft | 324 kts | 163° |
| 2026-05-09 01:07 | 40.42633 | -73.93838 | 12724 ft | 325 kts | 157° |
| 2026-05-09 01:07 | 40.40669 | -73.92389 | 12351 ft | 322 kts | 158° |
| 2026-05-09 01:07 | 40.38749 | -73.90964 | 11988 ft | 319 kts | 158° |
| 2026-05-09 01:07 | 40.36827 | -73.89527 | 11627 ft | 316 kts | 158° |
| 2026-05-09 01:08 | 40.34928 | -73.88095 | 11281 ft | 313 kts | 158° |
| 2026-05-09 01:08 | 40.33057 | -73.86673 | 10927 ft | 310 kts | 157° |
| 2026-05-09 01:08 | 40.31194 | -73.85253 | 10572 ft | 307 kts | 158° |
| 2026-05-09 01:08 | 40.29364 | -73.83850 | 10165 ft | 304 kts | 157° |
| 2026-05-09 01:09 | 40.28160 | -73.82914 | 9795 ft | 301 kts | 155° |
| 2026-05-09 01:09 | 40.26214 | -73.80206 | 9085 ft | 315 kts | 122° |
| 2026-05-09 01:09 | 40.25466 | -73.77547 | 8650 ft | 319 kts | 101° |
| 2026-05-09 01:09 | 40.25533 | -73.74629 | 8268 ft | 317 kts | 75° |
| 2026-05-09 01:10 | 40.26409 | -73.72083 | 7918 ft | 308 kts | 50° |
| 2026-05-09 01:10 | 40.27938 | -73.70234 | 7532 ft | 295 kts | 28° |
| 2026-05-09 01:10 | 40.29655 | -73.68777 | 7152 ft | 293 kts | 27° |
| 2026-05-09 01:10 | 40.31365 | -73.67321 | 6776 ft | 291 kts | 27° |
| 2026-05-09 01:11 | 40.33062 | -73.65884 | 6417 ft | 289 kts | 27° |
| 2026-05-09 01:11 | 40.34746 | -73.64466 | 6106 ft | 288 kts | 27° |
| 2026-05-09 01:11 | 40.36426 | -73.63058 | 5957 ft | 285 kts | 27° |
| 2026-05-09 01:11 | 40.38097 | -73.61667 | 5802 ft | 285 kts | 27° |
| 2026-05-09 01:12 | 40.39767 | -73.60283 | 5605 ft | 285 kts | 27° |
| 2026-05-09 01:12 | 40.41453 | -73.58895 | 5374 ft | 284 kts | 27° |
| 2026-05-09 01:12 | 40.43123 | -73.57531 | 5134 ft | 282 kts | 27° |
| 2026-05-09 01:12 | 40.44791 | -73.56181 | 4868 ft | 282 kts | 27° |
| 2026-05-09 01:13 | 40.46447 | -73.54850 | 4430 ft | 275 kts | 27° |
| 2026-05-09 01:13 | 40.48047 | -73.53578 | 4129 ft | 263 kts | 27° |
| 2026-05-09 01:13 | 40.49553 | -73.52401 | 3830 ft | 244 kts | 22° |
| 2026-05-09 01:13 | 40.51129 | -73.51931 | 3565 ft | 223 kts | 351° |
| 2026-05-09 01:14 | 40.52551 | -73.52481 | 3419 ft | 208 kts | 329° |
| 2026-05-09 01:14 | 40.53620 | -73.53641 | 3293 ft | 192 kts | 306° |
| 2026-05-09 01:14 | 40.54374 | -73.54928 | 3164 ft | 164 kts | 305° |
| 2026-05-09 01:14 | 40.55115 | -73.56052 | 3013 ft | 168 kts | 309° |
| 2026-05-09 01:15 | 40.55859 | -73.57283 | 2996 ft | 175 kts | 303° |
| 2026-05-09 01:15 | 40.56518 | -73.58620 | 2998 ft | 176 kts | 300° |
| 2026-05-09 01:15 | 40.57152 | -73.60007 | 2868 ft | 177 kts | 299° |
| 2026-05-09 01:15 | 40.57785 | -73.61396 | 2606 ft | 178 kts | 299° |
| 2026-05-09 01:16 | 40.58419 | -73.62795 | 2372 ft | 178 kts | 300° |
| 2026-05-09 01:16 | 40.59052 | -73.64190 | 2126 ft | 178 kts | 300° |
| 2026-05-09 01:16 | 40.59668 | -73.65548 | 1889 ft | 162 kts | 300° |
| 2026-05-09 01:17 | 40.60705 | -73.67837 | 1484 ft | 139 kts | 300° |
| 2026-05-09 01:17 | 40.61196 | -73.68932 | 1305 ft | 138 kts | 301° |
| 2026-05-09 01:17 | 40.61525 | -73.69645 | 1176 ft | 137 kts | 300° |
| 2026-05-09 01:17 | 40.62038 | -73.70775 | 990 ft | 138 kts | 300° |
| 2026-05-09 01:18 | 40.62530 | -73.71868 | 800 ft | 140 kts | 300° |
| 2026-05-09 01:18 | 40.63034 | -73.72974 | 623 ft | 141 kts | 301° |
| 2026-05-09 01:18 | 40.63519 | -73.74054 | 418 ft | 142 kts | 299° |
| 2026-05-09 01:18 | 40.64028 | -73.75179 | 229 ft | 141 kts | 301° |
| 2026-05-09 01:19 | 40.64508 | -73.76230 | 57 ft | 141 kts | 302° |
| 2026-05-09 01:19 | 40.64959 | -73.77237 | 27 ft | 105 kts | 301° |
| 2026-05-09 01:19 | 40.65237 | -73.77828 | 27 ft | 49 kts | 300° |
| 2026-05-09 01:19 | 40.65304 | -73.78097 | 25 ft | 18 kts | 231° |
| 2026-05-09 01:20 | 40.65244 | -73.78108 | 24 ft | 10 kts | 152° |
| 2026-05-09 01:20 | 40.65219 | -73.78084 | 23 ft | 6 kts | 119° |
| 2026-05-09 01:20 | 40.65194 | -73.78026 | 22 ft | 10 kts | 124° |
| 2026-05-09 01:20 | 40.65166 | -73.77981 | 22 ft | 1 kts | 167° |
| 2026-05-09 01:21 | 40.65154 | -73.77979 | 23 ft | 4 kts | 179° |
| 2026-05-09 01:21 | 40.65096 | -73.78008 | 24 ft | 10 kts | 216° |
| 2026-05-09 01:21 | 40.65043 | -73.78025 | 24 ft | 9 kts | 167° |
| 2026-05-09 01:21 | 40.65012 | -73.77999 | 23 ft | 9 kts | 135° |
| 2026-05-09 01:22 | 40.64983 | -73.77944 | 23 ft | 12 kts | 122° |
| 2026-05-09 01:22 | 40.64949 | -73.77836 | 22 ft | 13 kts | 91° |
| 2026-05-09 01:22 | 40.64969 | -73.77755 | 22 ft | 11 kts | 92° |
| 2026-05-09 01:22 | 40.64941 | -73.77664 | 23 ft | 12 kts | 112° |
| 2026-05-09 01:23 | 40.64887 | -73.77546 | 22 ft | 19 kts | 122° |
| 2026-05-09 01:23 | 40.64821 | -73.77400 | 25 ft | 21 kts | 120° |
| 2026-05-09 01:23 | 40.64752 | -73.77248 | 25 ft | 22 kts | 121° |
| 2026-05-09 01:23 | 40.64669 | -73.77126 | 23 ft | 20 kts | 148° |
| 2026-05-09 01:24 | 40.64539 | -73.77093 | 22 ft | 19 kts | 181° |
| 2026-05-09 01:24 | 40.64407 | -73.77125 | 24 ft | 19 kts | 210° |
| 2026-05-09 01:24 | 40.64285 | -73.77217 | 22 ft | 21 kts | 210° |
| 2026-05-09 01:24 | 40.64156 | -73.77320 | 22 ft | 22 kts | 210° |
| 2026-05-09 01:25 | 40.64068 | -73.77389 | 23 ft | 23 kts | 211° |
| 2026-05-09 01:25 | 40.63953 | -73.77479 | 22 ft | 24 kts | 211° |
| 2026-05-09 01:25 | 40.63875 | -73.77540 | 23 ft | 24 kts | 211° |
| 2026-05-09 01:25 | 40.63702 | -73.77675 | 24 ft | 25 kts | 210° |
| 2026-05-09 01:26 | 40.63552 | -73.77792 | 22 ft | 25 kts | 211° |
| 2026-05-09 01:26 | 40.63454 | -73.77871 | 23 ft | 22 kts | 216° |
| 2026-05-09 01:26 | 40.63413 | -73.78028 | 24 ft | 19 kts | 290° |
| 2026-05-09 01:26 | 40.63459 | -73.78149 | 26 ft | 19 kts | 300° |
| 2026-05-09 01:27 | 40.63534 | -73.78316 | 24 ft | 23 kts | 300° |
| 2026-05-09 01:27 | 40.63612 | -73.78487 | 25 ft | 25 kts | 301° |
| 2026-05-09 01:27 | 40.63689 | -73.78653 | 21 ft | 27 kts | 301° |
| 2026-05-09 01:27 | 40.63777 | -73.78846 | 24 ft | 28 kts | 301° |